Bei Facebook empfehlenBei Twitter postenGoogle plusPinterest

Das Wetter im Erzgebirge am 14.09.2017

Wetter und Klima am 14.09.2017 Holzhau im Erzgebirge (630m ü.NN)
Letzte gemessene Temperatur und Uhrzeit der Messung23:45:00 Uhr7.30 °C
Temperatur (Maximum / Höchstwert) und Uhrzeit der Messung12:45:00 Uhr12.50 °C
Temperatur (Minimum / Tiefstwert) und Uhrzeit der Messung22:00:006.80 °C
Errechneter Absolutwert der Temperaturschwankungen zwischen Tmin und Tmax des Tages5.70 K
Errechnete Tagesmitteltemperatur9.82604 °C
Gesamt - Niederschlag des Tages (in flüssiger Form)3.63 Liter / m²
Luftdruck (Maximum / Höchstwert) und Zeitpunkt der Messung21:45:00 Uhr1004.90 hPa
Luftdruck (Minimum / Tiefstwert) und Zeitpunkt der Messung05:30:00 Uhr999.40 hPa
Errechneter Absolutwert der Luftdruckschwankungen des Tages5.50 hPa
Höchste gemessene Windgeschwindigkeit und Uhrzeit der Messung13:00:00 Uhr72.72 km/h
Errechnete Windhäufigkeit in Relation zu den Messwerten des Tages39.58333 %
Niedrigste Windkühle (Windchill) und Zeitpunkt der Messung22:00:00 Uhr6.80 °C
Taupunkt (Maximum / Höchstwert) und Uhrzeit der Messung04:00:00 Uhr10.00 °C
Taupunkt (Minimum / Tiefstwert) und Uhrzeit der Messung21:45:004.00 °C
Anzahl der automatisch eingelesenen Messwerte 96

Detaillierte Wetter- und Klima- Messwerte für den 14.09.2017 in Holzhau im Erzgebirge (630m ü.NN)
ZeitTemperaturLuftdruckRel. LuftfeuchteWindWindrichtungWindchillTaupunktNiederschlag l/m²
23:45:007.30 °C1004.20 hPa86.00 %5.10 °C3.63
23:30:007.60 °C1004.30 hPa85.00 %5.20 °C3.11
23:15:007.80 °C1004.20 hPa83.00 %5.10 °C3.11
23:00:007.50 °C1004.30 hPa83.00 %7.92 km/hW7.50 °C4.80 °C3.11
22:45:007.30 °C1004.20 hPa83.00 %4.60 °C3.11
22:30:007.20 °C1004.40 hPa83.00 %7.92 km/hSSW7.20 °C4.50 °C3.11
22:15:006.90 °C1004.50 hPa84.00 %7.92 km/hSW6.90 °C4.40 °C3.11
22:00:006.80 °C1004.50 hPa83.00 %4.10 °C3.11
21:45:006.90 °C1004.90 hPa82.00 %4.00 °C3.11
21:30:007.20 °C1004.90 hPa82.00 %4.30 °C3.11
21:15:007.60 °C1004.80 hPa81.00 %18.00 km/hSW7.00 °C4.60 °C3.11
21:00:007.90 °C1004.90 hPa81.00 %4.80 °C3.11
20:45:007.70 °C1004.60 hPa82.00 %1.44 km/hSSO7.70 °C4.80 °C3.11
20:30:007.40 °C1004.60 hPa82.00 %12.96 km/hW7.40 °C4.50 °C3.11
20:15:007.60 °C1004.30 hPa81.00 %10.44 km/hW7.60 °C4.60 °C3.11
20:00:007.90 °C1004.20 hPa81.00 %12.96 km/hWSW7.90 °C4.80 °C3.11
19:45:008.40 °C1003.90 hPa81.00 %9.00 km/hS8.40 °C5.30 °C3.11
19:30:008.60 °C1003.60 hPa81.00 %5.04 km/hW8.60 °C5.50 °C3.11
19:15:008.80 °C1003.50 hPa80.00 %5.50 °C3.11
19:00:008.90 °C1003.50 hPa81.00 %18.00 km/hNW8.50 °C5.80 °C3.11
18:45:009.10 °C1003.30 hPa80.00 %5.80 °C3.11
18:30:009.40 °C1003.40 hPa79.00 %5.90 °C3.11
18:15:009.40 °C1003.30 hPa80.00 %34.92 km/hNW8.00 °C6.10 °C3.11
18:00:009.30 °C1003.10 hPa81.00 %6.20 °C3.11
17:45:009.10 °C1003.00 hPa81.00 %6.00 °C3.11
17:30:008.90 °C1002.90 hPa82.00 %6.00 °C3.11
17:15:009.00 °C1002.80 hPa82.00 %20.88 km/hWSW8.40 °C6.10 °C3.11
17:00:009.10 °C1002.60 hPa82.00 %6.20 °C3.11
16:45:009.20 °C1002.20 hPa82.00 %6.30 °C3.11
16:30:009.30 °C1002.60 hPa83.00 %6.60 °C3.11
16:15:009.40 °C1001.80 hPa83.00 %6.70 °C3.11
16:00:009.50 °C1002.40 hPa83.00 %6.80 °C3.11
15:45:009.40 °C1002.40 hPa85.00 %18.00 km/hWSW9.10 °C7.00 °C3.11
15:30:009.30 °C1002.30 hPa85.00 %6.90 °C3.11
15:15:009.60 °C1001.80 hPa84.00 %7.00 °C3.11
15:00:0010.20 °C1002.40 hPa84.00 %60.84 km/hSSW7.90 °C7.60 °C3.11
14:45:0010.60 °C1001.70 hPa82.00 %7.70 °C3.11
14:30:0010.80 °C1001.60 hPa82.00 %7.90 °C3.11
14:15:0011.30 °C1001.90 hPa80.00 %8.00 °C3.11
14:00:0011.80 °C1001.40 hPa77.00 %7.90 °C3.11
13:45:0012.10 °C1001.60 hPa76.00 %8.00 °C3.11
13:30:0012.30 °C1001.60 hPa76.00 %15.48 km/hWSW12.30 °C8.20 °C3.11
13:15:0012.40 °C1002.00 hPa77.00 %8.50 °C3.11
13:00:0012.40 °C1001.80 hPa77.00 %72.72 km/hSW10.40 °C8.50 °C3.11
12:45:0012.50 °C1001.70 hPa77.00 %23.40 km/hSW12.20 °C8.60 °C3.11
12:30:0011.90 °C1001.40 hPa78.00 %18.00 km/hWSW11.90 °C8.20 °C3.11
12:15:0011.50 °C1001.60 hPa79.00 %24.48 km/hSW11.00 °C8.00 °C3.11
12:00:0011.30 °C1001.50 hPa79.00 %7.92 km/hWSW11.30 °C7.80 °C3.11
11:45:0011.30 °C1001.20 hPa80.00 %8.00 °C3.11
11:30:0011.40 °C1001.40 hPa81.00 %29.88 km/hWNW10.60 °C8.30 °C3.11
11:15:0011.40 °C1001.30 hPa81.00 %8.30 °C3.11
11:00:0011.70 °C1001.30 hPa82.00 %8.70 °C3.11
10:45:0011.30 °C1000.90 hPa83.00 %20.88 km/hSO11.00 °C8.50 °C3.11
10:30:0011.00 °C1000.70 hPa83.00 %6.48 km/hWSW11.00 °C8.20 °C3.11
10:15:0011.10 °C1001.00 hPa84.00 %8.50 °C3.11
10:00:0010.90 °C1001.00 hPa85.00 %8.50 °C3.11
09:45:0010.80 °C1001.10 hPa86.00 %21.96 km/hSSW10.40 °C8.60 °C3.11
09:30:0010.50 °C1001.20 hPa86.00 %8.30 °C3.11
09:15:0010.60 °C1001.20 hPa87.00 %19.44 km/hSW10.30 °C8.50 °C3.11
09:00:0010.40 °C1000.70 hPa88.00 %8.50 °C3.11
08:45:0010.20 °C1000.70 hPa88.00 %8.30 °C3.11
08:30:0010.10 °C1000.80 hPa89.00 %8.40 °C3.11
08:15:009.90 °C1000.50 hPa90.00 %8.30 °C3.11
08:00:009.80 °C1000.50 hPa91.00 %6.48 km/hSW9.80 °C8.40 °C3.11
07:45:009.60 °C1000.60 hPa91.00 %8.20 °C3.11
07:30:009.50 °C1000.60 hPa91.00 %8.10 °C3.11
07:15:009.50 °C1000.60 hPa90.00 %7.90 °C3.11
07:00:009.80 °C1000.60 hPa90.00 %20.88 km/hWSW9.30 °C8.20 °C3.11
06:45:0010.10 °C1000.70 hPa90.00 %8.50 °C3.11
06:30:0010.30 °C1000.60 hPa89.00 %16.92 km/hWSW10.30 °C8.60 °C3.11
06:15:0010.40 °C1000.20 hPa91.00 %16.92 km/hSW10.40 °C9.00 °C3.11
06:00:0010.40 °C999.60 hPa92.00 %25.92 km/hSW9.60 °C9.20 °C3.11
05:45:0010.40 °C999.50 hPa93.00 %32.40 km/hWSW9.30 °C9.30 °C3.11
05:30:0010.40 °C999.40 hPa93.00 %9.30 °C3.11
05:15:0010.50 °C999.70 hPa93.00 %38.88 km/hSSW9.10 °C9.40 °C3.11
05:00:0010.50 °C999.90 hPa94.00 %3.96 km/hSW10.50 °C9.60 °C3.11
04:45:0010.60 °C1000.20 hPa94.00 %9.70 °C3.11
04:30:0010.70 °C1000.40 hPa94.00 %9.80 °C3.11
04:15:0010.80 °C1000.60 hPa94.00 %9.90 °C3.11
04:00:0010.90 °C1000.80 hPa94.00 %10.00 °C3.11
03:45:0010.90 °C1000.90 hPa93.00 %9.80 °C2.59
03:30:0010.90 °C1000.80 hPa93.00 %9.80 °C2.59
03:15:0010.70 °C1000.60 hPa93.00 %9.60 °C2.07
03:00:0010.40 °C1000.70 hPa93.00 %16.92 km/hWSW10.40 °C9.30 °C2.07
02:45:0010.20 °C1001.30 hPa93.00 %9.10 °C2.07
02:30:0010.10 °C1001.30 hPa93.00 %16.92 km/hSW10.10 °C9.00 °C2.07
02:15:009.90 °C1001.30 hPa92.00 %8.70 °C2.07
02:00:009.80 °C1001.60 hPa92.00 %8.60 °C2.07
01:45:009.80 °C1001.80 hPa92.00 %8.60 °C1.56
01:30:009.90 °C1001.70 hPa92.00 %8.70 °C1.56
01:15:009.90 °C1002.40 hPa92.00 %8.70 °C1.56
01:00:009.90 °C1002.30 hPa92.00 %8.70 °C1.04
00:45:009.90 °C1002.20 hPa91.00 %8.50 °C1.04
00:30:0010.00 °C1002.40 hPa90.00 %3.96 km/hSSW10.00 °C8.40 °C0.52
00:15:0010.30 °C1002.60 hPa89.00 %32.40 km/hSSW9.20 °C8.60 °C 
00:00:0010.50 °C1002.50 hPa88.00 %8.60 °C 

Permanenter Link zu dieser Seite: Wetter im Erzgebirge am 14.09.2017
Performance-Info: Die Erstellung der Seite / Statistik(en) / Tabelle(n) erforderte 5 Datenbankserver-Abfrage(n) und dauerte 101 Millisekunden. (Dieser Messwert ist von der Gesamt-Auslastung des Servers abhängig.)
Erzgebirge - Wetter | Erzgebirge - Wetter (Mobilgeräte) | Komplette Klimadatenbank